Time;durP1;ratioP1;P1;durP2;ratioP2;P2;SDS_P1;SDS_P2;PMS_P1;PMS_P2;Temp;Humidity;BMP_temperature;BMP_pressure;BME280_temperature;BME280_humidity;BME280_pressure;Samples;Min_cycle;Max_cycle;Signal;HPM_P1;HPM_P2
2021/05/01 00:02:36;;;;;;;67.47;42.28;;;;;;;;;;5112229;28;20047;-61
2021/05/01 00:05:21;;;;;;;75.50;45.67;;;;;;;;;;5113051;28;20052;-61
2021/05/01 00:08:06;;;;;;;87.78;46.70;;;;;;;;;;5113168;28;20048;-62
2021/05/01 00:10:52;;;;;;;82.45;42.85;;;;;;;;;;5112792;28;20382;-61
2021/05/01 00:13:37;;;;;;;96.00;46.08;;;;;;;;;;5110247;28;20040;-60
2021/05/01 00:16:23;;;;;;;102.60;48.08;;;;;;;;;;5112820;28;20431;-59
2021/05/01 00:19:09;;;;;;;90.57;46.72;;;;;;;;;;5113052;28;20051;-62
2021/05/01 00:21:54;;;;;;;86.32;45.95;;;;;;;;;;5111783;28;20521;-61
2021/05/01 00:24:39;;;;;;;71.50;42.67;;;;;;;;;;5092341;28;20076;-61
2021/05/01 00:27:25;;;;;;;80.20;45.55;;;;;;;;;;5092175;28;20086;-61
2021/05/01 00:30:10;;;;;;;102.35;51.40;;;;;;;;;;5092587;28;20047;-62
2021/05/01 00:32:56;;;;;;;138.70;58.40;;;;;;;;;;5097778;28;20066;-60
2021/05/01 00:35:43;;;;;;;85.82;49.20;;;;;;;;;;5112833;28;20051;-61
2021/05/01 00:38:28;;;;;;;88.85;46.63;;;;;;;;;;5112526;28;20113;-61
2021/05/01 00:41:14;;;;;;;77.50;44.60;;;;;;;;;;5112272;28;20189;-62
2021/05/01 00:43:59;;;;;;;79.20;44.05;;;;;;;;;;5111691;28;20048;-61
2021/05/01 00:46:44;;;;;;;97.47;50.33;;;;;;;;;;5112628;28;20058;-61
2021/05/01 00:49:30;;;;;;;79.90;45.97;;;;;;;;;;5111402;28;20055;-62
2021/05/01 00:52:15;;;;;;;83.20;45.78;;;;;;;;;;5113012;28;20048;-63
2021/05/01 00:55:01;;;;;;;105.80;49.47;;;;;;;;;;5111607;28;20080;-61
2021/05/01 00:57:46;;;;;;;97.50;48.08;;;;;;;;;;5112327;28;20054;-61
2021/05/01 01:03:37;;;;;;;86.13;46.22;;;;;;;;;;5111508;28;20063;-62
2021/05/01 01:06:22;;;;;;;97.55;49.58;;;;;;;;;;5112579;28;20478;-61
2021/05/01 01:09:08;;;;;;;100.38;50.83;;;;;;;;;;5111361;28;20481;-61
2021/05/01 01:11:53;;;;;;;100.05;51.40;;;;;;;;;;5112291;28;20048;-60
2021/05/01 01:14:38;;;;;;;122.75;55.92;;;;;;;;;;5109169;28;20039;-61
2021/05/01 01:17:23;;;;;;;96.43;49.85;;;;;;;;;;5112258;28;20052;-61
2021/05/01 01:20:09;;;;;;;88.03;47.15;;;;;;;;;;5111739;28;20506;-61
2021/05/01 01:22:54;;;;;;;75.90;43.88;;;;;;;;;;5112128;28;20052;-61
2021/05/01 01:25:40;;;;;;;86.68;46.83;;;;;;;;;;5111094;28;20570;-61
2021/05/01 01:28:26;;;;;;;78.85;47.25;;;;;;;;;;5112090;28;20047;-63
2021/05/01 01:31:11;;;;;;;108.60;53.28;;;;;;;;;;5112175;28;20122;-62
2021/05/01 01:33:57;;;;;;;131.18;58.10;;;;;;;;;;5112279;28;20485;-62
2021/05/01 01:36:42;;;;;;;117.80;55.65;;;;;;;;;;5111222;28;20108;-60
2021/05/01 01:39:28;;;;;;;115.88;56.00;;;;;;;;;;5112761;28;20054;-61
2021/05/01 01:42:13;;;;;;;108.93;54.67;;;;;;;;;;5116032;28;20127;-62
2021/05/01 01:44:59;;;;;;;122.57;57.70;;;;;;;;;;5115021;28;20047;-62
2021/05/01 01:47:44;;;;;;;86.78;47.97;;;;;;;;;;5115812;28;20104;-63
2021/05/01 01:50:29;;;;;;;123.20;57.65;;;;;;;;;;5116399;27;20096;-61
2021/05/01 01:53:15;;;;;;;157.85;62.58;;;;;;;;;;5115534;28;20424;-61
2021/05/01 01:56:00;;;;;;;167.70;60.20;;;;;;;;;;5114445;27;20050;-61
2021/05/01 01:58:46;;;;;;;698.50;97.53;;;;;;;;;;5113626;28;20048;-62
2021/05/01 02:01:32;;;;;;;738.17;96.93;;;;;;;;;;5115355;28;20043;-61
2021/05/01 02:04:17;;;;;;;557.60;80.93;;;;;;;;;;5115535;28;20143;-62
2021/05/01 02:07:03;;;;;;;598.88;87.30;;;;;;;;;;5114071;28;20456;-61
2021/05/01 02:09:48;;;;;;;622.08;82.13;;;;;;;;;;5115175;28;20148;-61
2021/05/01 02:12:38;;;;;;;615.17;83.63;;;;;;;;;;5113499;28;20148;-62
2021/05/01 02:15:23;;;;;;;569.45;81.57;;;;;;;;;;5115100;28;20485;-59
2021/05/01 02:18:08;;;;;;;482.85;72.65;;;;;;;;;;5116082;28;20070;-63
2021/05/01 02:20:54;;;;;;;552.78;78.97;;;;;;;;;;5115831;28;20051;-62
2021/05/01 02:23:39;;;;;;;805.67;98.38;;;;;;;;;;5114939;28;20047;-63
2021/05/01 02:26:25;;;;;;;570.20;82.55;;;;;;;;;;5115147;27;20127;-61
2021/05/01 02:29:10;;;;;;;814.95;94.03;;;;;;;;;;5115097;28;20043;-62
2021/05/01 02:31:56;;;;;;;794.63;86.15;;;;;;;;;;5115098;28;20054;-61
2021/05/01 02:34:41;;;;;;;776.83;94.97;;;;;;;;;;5113071;28;20054;-60
2021/05/01 02:37:26;;;;;;;755.15;94.40;;;;;;;;;;5114617;27;20511;-61
2021/05/01 02:40:12;;;;;;;559.13;72.80;;;;;;;;;;5093580;28;20044;-61
2021/05/01 02:42:58;;;;;;;573.60;76.07;;;;;;;;;;5093127;28;20040;-61
2021/05/01 02:45:43;;;;;;;604.47;74.40;;;;;;;;;;5111355;28;20079;-62
2021/05/01 02:48:28;;;;;;;586.97;74.50;;;;;;;;;;5113809;28;20058;-61
2021/05/01 02:51:13;;;;;;;548.05;67.22;;;;;;;;;;5114154;28;20493;-61
2021/05/01 02:53:59;;;;;;;689.58;82.88;;;;;;;;;;5113729;28;20044;-62
2021/05/01 02:56:44;;;;;;;712.28;83.30;;;;;;;;;;5114309;28;20051;-61
2021/05/01 02:59:30;;;;;;;712.50;84.47;;;;;;;;;;5114177;28;20054;-60
2021/05/01 03:02:16;;;;;;;741.80;87.07;;;;;;;;;;5114409;28;20138;-61
2021/05/01 03:05:01;;;;;;;484.52;66.72;;;;;;;;;;5112434;28;20531;-61
2021/05/01 03:07:47;;;;;;;336.23;58.47;;;;;;;;;;5114200;28;20035;-61
2021/05/01 03:10:32;;;;;;;839.70;98.90;;;;;;;;;;5114014;28;20044;-61
2021/05/01 03:13:17;;;;;;;444.35;63.03;;;;;;;;;;5114285;28;20402;-64
2021/05/01 03:16:03;;;;;;;415.23;59.47;;;;;;;;;;5113252;28;20048;-62
2021/05/01 03:18:48;;;;;;;575.15;81.72;;;;;;;;;;5114013;28;20051;-61
2021/05/01 03:21:34;;;;;;;573.55;81.32;;;;;;;;;;5113705;28;20074;-61
2021/05/01 03:24:19;;;;;;;403.77;65.05;;;;;;;;;;5114073;28;20044;-61
2021/05/01 03:27:04;;;;;;;497.40;81.80;;;;;;;;;;5113092;28;20047;-61
2021/05/01 03:29:50;;;;;;;300.00;62.58;;;;;;;;;;5113585;28;20050;-61
2021/05/01 03:32:35;;;;;;;378.55;72.05;;;;;;;;;;5113841;28;20055;-61
2021/05/01 03:35:21;;;;;;;311.88;65.65;;;;;;;;;;5113700;28;20047;-57
2021/05/01 03:38:06;;;;;;;224.63;56.38;;;;;;;;;;5098718;28;20040;-62
2021/05/01 03:40:51;;;;;;;171.48;54.40;;;;;;;;;;5113948;27;20124;-62
2021/05/01 03:43:37;;;;;;;273.45;70.40;;;;;;;;;;5112837;28;20109;-61
2021/05/01 03:46:22;;;;;;;110.93;51.17;;;;;;;;;;5112297;28;20054;-61
2021/05/01 03:49:07;;;;;;;118.85;51.97;;;;;;;;;;5113255;28;20148;-62
2021/05/01 03:51:53;;;;;;;115.68;53.47;;;;;;;;;;5113420;28;20039;-61
2021/05/01 03:54:38;;;;;;;112.25;52.08;;;;;;;;;;5113216;28;20075;-61
2021/05/01 03:57:23;;;;;;;121.20;55.40;;;;;;;;;;5111374;28;20036;-61
2021/05/01 04:00:09;;;;;;;115.22;54.85;;;;;;;;;;5112864;28;20494;-61
2021/05/01 04:02:55;;;;;;;120.10;55.38;;;;;;;;;;5110609;28;20096;-61
2021/05/01 04:05:40;;;;;;;134.50;62.35;;;;;;;;;;5113364;28;20047;-63
2021/05/01 04:08:26;;;;;;;146.20;66.90;;;;;;;;;;5113758;28;20048;-63
2021/05/01 04:11:12;;;;;;;133.05;65.20;;;;;;;;;;5111739;28;20558;-62
2021/05/01 04:13:57;;;;;;;125.95;62.17;;;;;;;;;;5113780;28;20035;-63
2021/05/01 04:16:42;;;;;;;136.02;63.78;;;;;;;;;;5112731;28;20055;-61
2021/05/01 04:19:27;;;;;;;136.65;63.25;;;;;;;;;;5113221;28;20039;-63
2021/05/01 04:22:13;;;;;;;137.75;65.38;;;;;;;;;;5112575;28;20040;-63
2021/05/01 04:24:58;;;;;;;126.65;60.10;;;;;;;;;;5112873;28;20653;-61
2021/05/01 04:27:43;;;;;;;190.13;70.72;;;;;;;;;;5112692;27;20122;-60
2021/05/01 04:30:29;;;;;;;272.00;74.00;;;;;;;;;;5112366;28;20048;-61
2021/05/01 04:33:14;;;;;;;107.70;54.25;;;;;;;;;;5111981;28;20441;-62
2021/05/01 04:36:00;;;;;;;99.22;51.22;;;;;;;;;;5112766;28;20079;-63
2021/05/01 04:38:45;;;;;;;100.25;50.55;;;;;;;;;;5113023;28;20131;-62
2021/05/01 04:41:30;;;;;;;86.63;47.40;;;;;;;;;;5112834;28;20039;-62
2021/05/01 04:44:16;;;;;;;86.85;48.78;;;;;;;;;;5111337;28;20489;-62
2021/05/01 04:47:01;;;;;;;99.35;50.45;;;;;;;;;;5112730;28;20047;-62
2021/05/01 04:49:47;;;;;;;96.97;50.25;;;;;;;;;;5112444;28;20059;-61
2021/05/01 04:52:32;;;;;;;95.47;50.35;;;;;;;;;;5111737;28;20048;-63
2021/05/01 04:55:18;;;;;;;78.75;46.10;;;;;;;;;;5112886;28;20127;-63
2021/05/01 04:58:03;;;;;;;72.35;43.95;;;;;;;;;;5112309;28;20047;-61
2021/05/01 05:00:48;;;;;;;71.80;43.38;;;;;;;;;;5112159;28;20046;-61
2021/05/01 05:03:34;;;;;;;63.50;41.03;;;;;;;;;;5111381;28;20455;-61
2021/05/01 05:06:20;;;;;;;60.40;39.55;;;;;;;;;;5112100;28;20061;-62
2021/05/01 05:09:05;;;;;;;51.05;35.92;;;;;;;;;;5114501;28;20063;-62
2021/05/01 05:11:50;;;;;;;45.17;33.63;;;;;;;;;;5133362;28;20043;-63
2021/05/01 05:14:36;;;;;;;43.72;32.50;;;;;;;;;;5119106;27;20055;-62
2021/05/01 05:17:21;;;;;;;36.63;29.13;;;;;;;;;;5117056;28;20414;-61
2021/05/01 05:20:07;;;;;;;32.10;26.30;;;;;;;;;;5115926;28;20067;-62
2021/05/01 05:22:52;;;;;;;36.60;28.35;;;;;;;;;;5116178;28;20047;-61
2021/05/01 05:25:37;;;;;;;24.23;21.02;;;;;;;;;;5114952;27;20047;-62
2021/05/01 05:28:23;;;;;;;27.23;23.02;;;;;;;;;;5136595;27;20043;-61
2021/05/01 05:31:08;;;;;;;24.67;21.33;;;;;;;;;;5136253;27;20039;-61
2021/05/01 05:33:53;;;;;;;25.10;22.38;;;;;;;;;;5134811;27;20046;-62
2021/05/01 05:36:40;;;;;;;23.58;19.67;;;;;;;;;;5118423;27;20059;-62
2021/05/01 05:39:26;;;;;;;21.08;18.73;;;;;;;;;;5117413;27;20134;-61
2021/05/01 05:42:11;;;;;;;21.10;18.75;;;;;;;;;;5115935;28;20035;-61
2021/05/01 05:44:57;;;;;;;21.67;19.30;;;;;;;;;;5113822;28;20048;-63
2021/05/01 05:47:42;;;;;;;23.27;18.98;;;;;;;;;;5097070;27;20081;-62
2021/05/01 05:50:28;;;;;;;22.52;20.10;;;;;;;;;;5116780;27;20043;-62
2021/05/01 05:53:13;;;;;;;23.33;19.70;;;;;;;;;;5114596;28;20047;-61
2021/05/01 05:55:58;;;;;;;18.30;16.35;;;;;;;;;;5113453;28;20439;-61
2021/05/01 05:58:44;;;;;;;20.50;18.38;;;;;;;;;;5115492;28;20651;-62
2021/05/01 06:01:31;;;;;;;22.02;18.70;;;;;;;;;;5113481;28;20044;-61
2021/05/01 06:04:18;;;;;;;20.45;17.27;;;;;;;;;;5095206;28;20101;-62
2021/05/01 06:07:05;;;;;;;18.40;15.77;;;;;;;;;;5112238;28;20044;-61
2021/05/01 06:09:51;;;;;;;20.60;16.95;;;;;;;;;;5114125;28;20040;-62
2021/05/01 06:12:37;;;;;;;18.40;16.13;;;;;;;;;;5114302;28;20075;-62
2021/05/01 06:15:22;;;;;;;20.13;16.63;;;;;;;;;;5113474;28;20051;-62
2021/05/01 06:18:10;;;;;;;20.25;18.13;;;;;;;;;;5115252;28;20134;-61
2021/05/01 06:20:55;;;;;;;19.17;16.35;;;;;;;;;;5114854;28;20416;-62
2021/05/01 06:23:41;;;;;;;16.27;14.55;;;;;;;;;;5114134;28;20044;-62
2021/05/01 06:26:26;;;;;;;17.80;16.00;;;;;;;;;;5114378;28;20535;-62
2021/05/01 06:29:12;;;;;;;18.17;16.33;;;;;;;;;;5115016;28;20058;-61
2021/05/01 06:31:57;;;;;;;16.02;14.32;;;;;;;;;;5115378;28;20052;-61
2021/05/01 06:34:49;;;;;;;17.83;15.90;;;;;;;;;;5098676;28;20039;-62
2021/05/01 06:37:34;;;;;;;19.23;16.83;;;;;;;;;;5114960;28;20541;-63
2021/05/01 06:40:24;;;;;;;23.02;16.90;;;;;;;;;;5113764;28;20047;-62
2021/05/01 06:43:32;;;;;;;18.88;16.98;;;;;;;;;;5114802;28;20047;-63
2021/05/01 06:46:17;;;;;;;22.70;17.42;;;;;;;;;;5112688;28;20051;-64
2021/05/01 06:49:06;;;;;;;25.23;18.83;;;;;;;;;;5114856;28;20052;-63
2021/05/01 06:51:51;;;;;;;25.17;19.05;;;;;;;;;;5113430;28;20382;-63
2021/05/01 06:54:36;;;;;;;26.73;19.48;;;;;;;;;;5114631;28;20674;-62
2021/05/01 06:57:26;;;;;;;28.13;20.40;;;;;;;;;;5093142;28;20048;-64
2021/05/01 07:00:12;;;;;;;26.48;20.75;;;;;;;;;;5096379;28;20044;-62
2021/05/01 07:02:57;;;;;;;26.25;20.08;;;;;;;;;;5093848;28;20097;-62
2021/05/01 07:05:43;;;;;;;24.35;19.00;;;;;;;;;;5099745;28;20040;-63
2021/05/01 07:08:28;;;;;;;25.20;19.77;;;;;;;;;;5112574;28;20047;-62
2021/05/01 07:11:14;;;;;;;25.75;18.73;;;;;;;;;;5113886;28;20039;-62
2021/05/01 07:13:59;;;;;;;25.25;18.27;;;;;;;;;;5114192;28;20100;-61
2021/05/01 07:16:44;;;;;;;24.98;15.68;;;;;;;;;;5113241;28;20102;-61
2021/05/01 07:19:30;;;;;;;19.77;15.70;;;;;;;;;;5112632;28;20504;-61
2021/05/01 07:22:15;;;;;;;25.17;17.65;;;;;;;;;;5113878;28;20039;-62
2021/05/01 07:25:01;;;;;;;20.15;13.95;;;;;;;;;;5113717;28;20052;-61
2021/05/01 07:27:49;;;;;;;23.42;14.60;;;;;;;;;;5112489;28;20470;-62
2021/05/01 07:30:43;;;;;;;20.38;14.05;;;;;;;;;;5113503;28;20035;-61
2021/05/01 07:33:31;;;;;;;24.48;14.80;;;;;;;;;;5113654;28;20048;-62
2021/05/01 07:36:17;;;;;;;24.98;15.82;;;;;;;;;;5112516;28;20055;-62
2021/05/01 07:39:02;;;;;;;20.75;14.65;;;;;;;;;;5112591;28;20114;-61
2021/05/01 07:41:56;;;;;;;19.13;13.27;;;;;;;;;;5113585;28;20043;-63
2021/05/01 07:44:41;;;;;;;22.75;14.43;;;;;;;;;;5113809;28;20445;-61
2021/05/01 07:47:26;;;;;;;18.35;13.95;;;;;;;;;;5111424;28;20044;-60
2021/05/01 07:50:12;;;;;;;19.27;14.75;;;;;;;;;;5113214;28;20048;-62
2021/05/01 07:52:57;;;;;;;18.40;14.15;;;;;;;;;;5113166;28;20040;-62
2021/05/01 07:55:42;;;;;;;17.17;11.68;;;;;;;;;;5113141;28;20505;-60
2021/05/01 07:58:27;;;;;;;16.65;13.27;;;;;;;;;;5111498;28;20047;-62
2021/05/01 08:01:13;;;;;;;16.30;12.25;;;;;;;;;;5112925;28;20044;-61
2021/05/01 08:03:58;;;;;;;16.48;12.70;;;;;;;;;;5113145;27;20039;-61
2021/05/01 08:06:44;;;;;;;16.48;12.15;;;;;;;;;;5113110;28;20043;-62
2021/05/01 08:09:30;;;;;;;15.00;10.55;;;;;;;;;;5097220;28;20122;-61
2021/05/01 08:12:15;;;;;;;13.50;11.27;;;;;;;;;;5112991;28;20044;-62
2021/05/01 08:15:01;;;;;;;17.10;11.77;;;;;;;;;;5112875;28;20685;-62
2021/05/01 08:17:46;;;;;;;16.65;10.63;;;;;;;;;;5111946;28;20158;-63
2021/05/01 08:20:32;;;;;;;10.98;9.63;;;;;;;;;;5112795;28;20048;-62
2021/05/01 08:23:17;;;;;;;11.70;10.50;;;;;;;;;;5112932;28;20115;-62
2021/05/01 08:26:03;;;;;;;16.27;11.10;;;;;;;;;;5111796;28;20050;-62
2021/05/01 08:28:48;;;;;;;14.40;11.15;;;;;;;;;;5112750;28;20114;-62
2021/05/01 08:31:33;;;;;;;15.95;10.88;;;;;;;;;;5111550;28;20441;-62
2021/05/01 08:34:18;;;;;;;14.95;10.30;;;;;;;;;;5112670;28;20486;-62
2021/05/01 08:37:04;;;;;;;11.13;9.88;;;;;;;;;;5111899;28;20417;-62
2021/05/01 08:39:49;;;;;;;12.20;10.48;;;;;;;;;;5112313;28;20501;-62
2021/05/01 08:42:35;;;;;;;12.27;10.23;;;;;;;;;;5112616;28;20051;-61
2021/05/01 08:45:23;;;;;;;11.45;8.93;;;;;;;;;;5112714;28;20043;-62
2021/05/01 08:48:08;;;;;;;10.82;9.65;;;;;;;;;;5111528;28;20145;-62
2021/05/01 08:51:03;;;;;;;12.45;10.30;;;;;;;;;;5112274;28;20431;-62
2021/05/01 08:53:48;;;;;;;13.75;9.18;;;;;;;;;;5112330;28;20493;-63
2021/05/01 08:56:33;;;;;;;13.50;9.27;;;;;;;;;;5112311;28;20043;-62
2021/05/01 08:59:19;;;;;;;9.05;7.75;;;;;;;;;;5112045;28;20649;-62
2021/05/01 09:02:04;;;;;;;11.57;7.88;;;;;;;;;;5112532;28;20047;-62
2021/05/01 09:04:50;;;;;;;12.43;8.07;;;;;;;;;;5111380;28;20039;-61
2021/05/01 09:07:37;;;;;;;9.23;8.32;;;;;;;;;;5111181;28;20040;-61
2021/05/01 09:10:23;;;;;;;11.40;8.43;;;;;;;;;;5112269;28;20417;-61
2021/05/01 09:13:13;;;;;;;12.25;7.75;;;;;;;;;;5112301;28;20043;-62
2021/05/01 09:16:02;;;;;;;10.07;8.38;;;;;;;;;;5111952;28;20043;-62
2021/05/01 09:18:50;;;;;;;13.27;7.78;;;;;;;;;;5110921;28;20119;-62
2021/05/01 09:21:35;;;;;;;9.23;7.35;;;;;;;;;;5111943;28;20047;-61
2021/05/01 09:24:23;;;;;;;8.68;6.90;;;;;;;;;;5114406;28;20607;-63
2021/05/01 09:27:09;;;;;;;8.30;7.00;;;;;;;;;;5118134;28;20482;-63
2021/05/01 09:29:54;;;;;;;7.25;6.55;;;;;;;;;;5110241;28;20486;-62
2021/05/01 09:32:39;;;;;;;7.00;6.30;;;;;;;;;;5111019;28;20075;-62
2021/05/01 09:35:25;;;;;;;8.88;6.55;;;;;;;;;;5139910;27;20039;-62
2021/05/01 09:38:10;;;;;;;8.45;7.18;;;;;;;;;;5139887;27;20044;-62
2021/05/01 09:40:55;;;;;;;7.93;6.50;;;;;;;;;;5109935;28;20044;-63
2021/05/01 09:44:02;;;;;;;9.20;7.15;;;;;;;;;;5111219;28;20049;-63
2021/05/01 09:46:48;;;;;;;7.95;6.20;;;;;;;;;;5111910;28;20515;-62
2021/05/01 09:49:33;;;;;;;8.75;7.00;;;;;;;;;;5111657;28;20055;-62
2021/05/01 09:52:19;;;;;;;12.27;7.25;;;;;;;;;;5111001;28;20047;-62
2021/05/01 09:55:04;;;;;;;9.15;7.20;;;;;;;;;;5110853;28;20055;-63
2021/05/01 09:57:50;;;;;;;7.63;6.65;;;;;;;;;;5104517;28;20514;-62
2021/05/01 10:00:35;;;;;;;8.48;7.57;;;;;;;;;;5091216;28;20049;-63
2021/05/01 10:03:21;;;;;;;7.47;6.38;;;;;;;;;;5114243;28;20051;-62
2021/05/01 10:06:07;;;;;;;8.68;6.70;;;;;;;;;;5115269;28;20101;-62
2021/05/01 10:08:53;;;;;;;9.45;6.80;;;;;;;;;;5115492;28;20051;-62
2021/05/01 10:11:38;;;;;;;7.85;7.05;;;;;;;;;;5113398;28;20036;-63
2021/05/01 10:14:34;;;;;;;8.82;7.93;;;;;;;;;;5115241;28;20043;-62
2021/05/01 10:17:22;;;;;;;6.75;5.88;;;;;;;;;;5115351;28;20051;-62
2021/05/01 10:20:08;;;;;;;7.50;5.47;;;;;;;;;;5114959;28;20043;-63
2021/05/01 10:22:54;;;;;;;7.88;5.68;;;;;;;;;;5113753;28;20051;-63
2021/05/01 10:25:39;;;;;;;8.30;5.28;;;;;;;;;;5114242;28;20052;-62
2021/05/01 10:28:24;;;;;;;6.13;5.43;;;;;;;;;;5114113;28;20047;-62
2021/05/01 10:31:11;;;;;;;7.03;5.95;;;;;;;;;;5113893;28;20661;-62
2021/05/01 10:33:56;;;;;;;6.25;5.60;;;;;;;;;;5094619;28;20052;-62
2021/05/01 10:36:42;;;;;;;10.52;5.80;;;;;;;;;;5093317;28;20040;-63
2021/05/01 10:39:27;;;;;;;7.05;5.57;;;;;;;;;;5093107;28;20131;-62
2021/05/01 10:42:16;;;;;;;5.80;5.20;;;;;;;;;;5099272;28;20035;-62
2021/05/01 10:45:01;;;;;;;7.68;6.20;;;;;;;;;;5112975;28;20454;-62
2021/05/01 10:48:05;;;;;;;6.55;5.45;;;;;;;;;;5094045;28;20054;-62
2021/05/01 10:51:04;;;;;;;8.02;4.95;;;;;;;;;;5101139;28;20131;-63
2021/05/01 10:54:10;;;;;;;5.35;4.85;;;;;;;;;;5113424;28;20052;-62
2021/05/01 10:56:56;;;;;;;6.25;5.65;;;;;;;;;;5112584;28;20048;-62
2021/05/01 10:59:41;;;;;;;8.90;6.22;;;;;;;;;;5114243;28;20035;-62
2021/05/01 11:02:33;;;;;;;6.10;4.95;;;;;;;;;;5112283;28;20052;-63
2021/05/01 11:05:18;;;;;;;5.53;4.95;;;;;;;;;;5114499;28;20047;-61
2021/05/01 11:08:04;;;;;;;6.03;5.45;;;;;;;;;;5113236;28;20047;-62
2021/05/01 11:10:51;;;;;;;7.90;5.57;;;;;;;;;;5113090;28;20039;-61
2021/05/01 11:13:36;;;;;;;5.07;4.57;;;;;;;;;;5114198;28;20047;-61
2021/05/01 11:16:22;;;;;;;6.32;5.72;;;;;;;;;;5112991;28;20478;-62
2021/05/01 11:19:07;;;;;;;7.70;7.03;;;;;;;;;;5113063;28;20471;-62
2021/05/01 11:21:52;;;;;;;10.10;8.30;;;;;;;;;;5111060;28;20040;-61
2021/05/01 11:24:37;;;;;;;14.85;12.95;;;;;;;;;;5112957;28;20122;-61
2021/05/01 11:27:23;;;;;;;13.43;11.95;;;;;;;;;;5112707;28;20078;-62
2021/05/01 11:30:09;;;;;;;12.07;10.68;;;;;;;;;;5111747;28;20044;-62
2021/05/01 11:32:55;;;;;;;15.70;14.10;;;;;;;;;;5113805;28;20043;-61
2021/05/01 11:35:40;;;;;;;13.55;11.77;;;;;;;;;;5113508;28;20044;-62
2021/05/01 11:38:29;;;;;;;12.30;11.10;;;;;;;;;;5112818;28;20126;-61
2021/05/01 11:41:14;;;;;;;12.10;9.98;;;;;;;;;;5112622;28;20047;-61
2021/05/01 11:43:59;;;;;;;8.77;7.88;;;;;;;;;;5113381;28;20132;-62
2021/05/01 11:46:45;;;;;;;10.18;8.88;;;;;;;;;;5113624;28;20048;-61
2021/05/01 11:49:30;;;;;;;9.52;8.40;;;;;;;;;;5112198;28;20056;-62
2021/05/01 11:52:19;;;;;;;8.43;7.60;;;;;;;;;;5115884;27;20047;-64
2021/05/01 11:55:21;;;;;;;7.72;7.03;;;;;;;;;;5118554;28;20067;-64
2021/05/01 11:58:08;;;;;;;12.30;10.27;;;;;;;;;;5119961;28;20047;-63
2021/05/01 12:00:53;;;;;;;11.13;9.98;;;;;;;;;;5112177;28;20601;-59
2021/05/01 12:03:39;;;;;;;12.82;11.27;;;;;;;;;;5112179;28;20043;-61
2021/05/01 12:06:32;;;;;;;12.38;10.98;;;;;;;;;;5112253;28;20121;-63
2021/05/01 12:09:18;;;;;;;11.60;10.32;;;;;;;;;;5113225;28;20137;-61
2021/05/01 12:12:04;;;;;;;12.23;10.98;;;;;;;;;;5111768;28;20040;-61
2021/05/01 12:14:49;;;;;;;10.90;9.90;;;;;;;;;;5113065;27;20048;-61
2021/05/01 12:17:37;;;;;;;15.38;10.73;;;;;;;;;;5112773;28;20386;-63
2021/05/01 12:20:26;;;;;;;12.00;10.82;;;;;;;;;;5112571;28;20480;-63
2021/05/01 12:23:15;;;;;;;9.05;8.13;;;;;;;;;;5092242;28;20395;-61
2021/05/01 12:26:01;;;;;;;6.65;5.88;;;;;;;;;;5092520;28;20051;-61
2021/05/01 12:28:46;;;;;;;6.55;5.82;;;;;;;;;;5091473;28;20128;-61
2021/05/01 12:31:52;;;;;;;6.78;5.53;;;;;;;;;;5095341;28;20036;-61
2021/05/01 12:34:50;;;;;;;9.13;6.00;;;;;;;;;;5112785;28;20126;-61
2021/05/01 12:37:35;;;;;;;6.13;5.53;;;;;;;;;;5120461;28;20134;-63
2021/05/01 12:40:20;;;;;;;6.95;6.10;;;;;;;;;;5120042;28;20035;-64
2021/05/01 12:43:24;;;;;;;7.10;6.47;;;;;;;;;;5119959;28;20047;-64
2021/05/01 12:46:29;;;;;;;7.72;6.95;;;;;;;;;;5120083;28;20059;-64
2021/05/01 12:49:18;;;;;;;7.70;7.00;;;;;;;;;;5122263;28;20051;-63
2021/05/01 12:52:06;;;;;;;10.23;7.57;;;;;;;;;;5117003;28;20146;-64
2021/05/01 12:54:57;;;;;;;9.23;8.30;;;;;;;;;;5114063;28;20039;-62
2021/05/01 12:57:42;;;;;;;8.38;7.60;;;;;;;;;;5112455;28;20043;-62
2021/05/01 13:00:28;;;;;;;9.98;8.30;;;;;;;;;;5112211;28;20051;-62
2021/05/01 13:03:16;;;;;;;9.82;8.82;;;;;;;;;;5110266;28;20047;-62
2021/05/01 13:06:01;;;;;;;9.20;8.32;;;;;;;;;;5112264;28;20130;-63
2021/05/01 13:08:46;;;;;;;8.68;7.78;;;;;;;;;;5111759;28;20044;-62
2021/05/01 13:11:31;;;;;;;9.10;8.10;;;;;;;;;;5096715;28;20077;-62
2021/05/01 13:14:21;;;;;;;9.35;8.35;;;;;;;;;;5111160;28;20047;-62
2021/05/01 13:17:06;;;;;;;8.50;7.70;;;;;;;;;;5112055;28;20109;-62
2021/05/01 13:19:58;;;;;;;9.70;7.68;;;;;;;;;;5111801;28;20044;-62
2021/05/01 13:22:49;;;;;;;9.00;6.90;;;;;;;;;;5112329;28;20417;-62
2021/05/01 13:25:41;;;;;;;7.50;6.78;;;;;;;;;;5091764;28;20557;-62
2021/05/01 13:28:27;;;;;;;8.35;7.13;;;;;;;;;;5092029;28;20550;-62
2021/05/01 13:31:12;;;;;;;8.45;6.22;;;;;;;;;;5119144;28;20119;-62
2021/05/01 13:33:57;;;;;;;5.65;5.03;;;;;;;;;;5097093;28;20421;-62
2021/05/01 13:36:43;;;;;;;5.97;5.00;;;;;;;;;;5119126;28;20134;-64
2021/05/01 13:39:29;;;;;;;5.85;5.30;;;;;;;;;;5123200;28;20051;-64
2021/05/01 13:42:15;;;;;;;6.10;5.50;;;;;;;;;;5123420;28;20044;-62
2021/05/01 13:45:00;;;;;;;5.93;5.43;;;;;;;;;;5123095;27;20048;-63
2021/05/01 13:47:48;;;;;;;6.88;5.55;;;;;;;;;;5121032;28;20051;-65
2021/05/01 13:50:33;;;;;;;7.25;5.65;;;;;;;;;;5118595;28;20477;-64
2021/05/01 13:53:22;;;;;;;5.93;5.28;;;;;;;;;;5116085;28;20501;-62
2021/05/01 13:56:07;;;;;;;6.00;5.40;;;;;;;;;;5114285;28;20130;-63
2021/05/01 13:58:53;;;;;;;5.68;5.07;;;;;;;;;;5119815;28;20071;-62
2021/05/01 14:01:47;;;;;;;6.63;5.43;;;;;;;;;;5115163;28;20047;-61
2021/05/01 14:04:35;;;;;;;6.32;5.72;;;;;;;;;;5114918;28;20040;-61
2021/05/01 14:07:20;;;;;;;7.07;6.38;;;;;;;;;;5118851;28;20058;-62
2021/05/01 14:10:06;;;;;;;6.07;5.47;;;;;;;;;;5125386;28;20090;-64
2021/05/01 14:12:53;;;;;;;6.80;6.20;;;;;;;;;;5126439;28;20039;-64
2021/05/01 14:15:39;;;;;;;6.57;5.82;;;;;;;;;;5123847;28;20097;-63
2021/05/01 14:18:24;;;;;;;6.65;5.97;;;;;;;;;;5115566;28;20417;-64
2021/05/01 14:21:10;;;;;;;5.85;5.35;;;;;;;;;;5115125;28;20044;-62
2021/05/01 14:23:56;;;;;;;6.55;5.97;;;;;;;;;;5115212;28;20040;-62
2021/05/01 14:27:14;;;;;;;8.13;7.03;;;;;;;;;;5113220;28;20043;-61
2021/05/01 14:29:59;;;;;;;8.55;7.75;;;;;;;;;;5096791;28;20093;-63
2021/05/01 14:32:45;;;;;;;8.13;7.28;;;;;;;;;;5114867;28;20047;-62
2021/05/01 14:35:31;;;;;;;8.60;7.70;;;;;;;;;;5114256;28;20046;-62
2021/05/01 14:38:16;;;;;;;7.20;6.47;;;;;;;;;;5114358;28;20405;-63
2021/05/01 14:41:01;;;;;;;7.95;7.05;;;;;;;;;;5114434;28;20048;-62
2021/05/01 14:43:47;;;;;;;7.85;7.07;;;;;;;;;;5114807;28;20044;-62
2021/05/01 14:46:32;;;;;;;8.32;6.80;;;;;;;;;;5112395;28;20047;-62
2021/05/01 14:49:19;;;;;;;8.15;7.22;;;;;;;;;;5104082;28;20067;-63
2021/05/01 14:52:07;;;;;;;7.70;6.57;;;;;;;;;;5104894;28;20050;-63
2021/05/01 14:54:55;;;;;;;7.63;6.93;;;;;;;;;;5105001;28;20048;-62
2021/05/01 14:57:40;;;;;;;7.82;6.53;;;;;;;;;;5106028;28;20072;-62
2021/05/01 15:00:25;;;;;;;7.63;6.90;;;;;;;;;;5093643;28;20052;-62
2021/05/01 15:03:11;;;;;;;8.02;7.22;;;;;;;;;;5093838;28;20047;-63
2021/05/01 15:05:56;;;;;;;7.78;6.82;;;;;;;;;;5093737;28;20044;-62
2021/05/01 15:08:41;;;;;;;9.07;8.20;;;;;;;;;;5111177;28;20051;-62
2021/05/01 15:11:31;;;;;;;10.98;8.82;;;;;;;;;;5113828;28;20039;-62
2021/05/01 15:14:17;;;;;;;9.40;8.38;;;;;;;;;;5114262;28;20451;-62
2021/05/01 15:17:03;;;;;;;9.02;8.13;;;;;;;;;;5112720;28;20404;-62
2021/05/01 15:19:58;;;;;;;8.50;7.63;;;;;;;;;;5113155;28;20036;-63
2021/05/01 15:22:43;;;;;;;7.95;7.10;;;;;;;;;;5112935;28;20048;-62
2021/05/01 15:25:28;;;;;;;9.55;8.25;;;;;;;;;;5113989;28;20043;-62
2021/05/01 15:28:14;;;;;;;9.40;7.65;;;;;;;;;;5112969;28;20051;-62
2021/05/01 15:31:01;;;;;;;8.75;7.85;;;;;;;;;;5113482;28;20051;-62
2021/05/01 15:33:47;;;;;;;8.38;7.47;;;;;;;;;;5113901;28;20181;-62
2021/05/01 15:36:32;;;;;;;8.57;7.25;;;;;;;;;;5113211;28;20036;-63
2021/05/01 15:39:17;;;;;;;8.48;7.35;;;;;;;;;;5112852;28;20043;-62
2021/05/01 15:42:03;;;;;;;8.63;7.82;;;;;;;;;;5113831;28;20047;-62
2021/05/01 15:44:48;;;;;;;8.48;7.47;;;;;;;;;;5113625;28;20048;-61
2021/05/01 15:47:33;;;;;;;8.25;7.45;;;;;;;;;;5112447;28;20048;-62
2021/05/01 15:50:19;;;;;;;10.45;8.10;;;;;;;;;;5112031;28;20378;-61
2021/05/01 15:53:05;;;;;;;9.07;8.20;;;;;;;;;;5109137;27;20515;-62
2021/05/01 15:55:50;;;;;;;8.90;8.02;;;;;;;;;;5118828;27;20051;-62
2021/05/01 15:58:36;;;;;;;10.43;8.40;;;;;;;;;;5126005;27;20039;-62
2021/05/01 16:01:21;;;;;;;10.57;9.45;;;;;;;;;;5110424;28;20054;-62
2021/05/01 16:04:06;;;;;;;9.38;8.48;;;;;;;;;;5111306;27;20043;-62
2021/05/01 16:06:51;;;;;;;9.30;8.38;;;;;;;;;;5107022;28;20044;-61
2021/05/01 16:09:37;;;;;;;8.50;7.70;;;;;;;;;;5111343;27;20043;-62
2021/05/01 16:12:22;;;;;;;9.32;8.40;;;;;;;;;;5107190;27;20051;-62
2021/05/01 16:15:08;;;;;;;8.90;8.00;;;;;;;;;;5123611;27;20047;-62
2021/05/01 16:17:54;;;;;;;8.82;7.88;;;;;;;;;;5123288;27;20051;-62
2021/05/01 16:20:39;;;;;;;8.68;7.70;;;;;;;;;;5121841;27;20433;-61